Map

Track Data

SID SEASON NUMBER BASIN SUBBASIN NAME ISO_TIME NATURE LAT LON WMO_WIND WMO_PRES WMO_AGENCY TRACK_TYPE DIST2LAND LANDFALL IFLAG USA_AGENCY USA_ATCF_ID USA_LAT USA_LON USA_RECORD USA_STATUS USA_WIND USA_PRES USA_SSHS USA_R34_NE USA_R34_SE USA_R34_SW USA_R34_NW USA_R50_NE USA_R50_SE USA_R50_SW USA_R50_NW USA_R64_NE USA_R64_SE USA_R64_SW USA_R64_NW USA_POCI USA_ROCI USA_RMW USA_EYE TOKYO_LAT TOKYO_LON TOKYO_GRADE TOKYO_WIND TOKYO_PRES TOKYO_R50_DIR TOKYO_R50_LONG TOKYO_R50_SHORT TOKYO_R30_DIR TOKYO_R30_LONG TOKYO_R30_SHORT TOKYO_LAND CMA_LAT CMA_LON CMA_CAT CMA_WIND CMA_PRES HKO_LAT HKO_LON HKO_CAT HKO_WIND HKO_PRES NEWDELHI_LAT NEWDELHI_LON NEWDELHI_GRADE NEWDELHI_WIND NEWDELHI_PRES NEWDELHI_CI NEWDELHI_DP NEWDELHI_POCI REUNION_LAT REUNION_LON REUNION_TYPE REUNION_WIND REUNION_PRES REUNION_TNUM REUNION_CI REUNION_RMW REUNION_R34_NE REUNION_R34_SE REUNION_R34_SW REUNION_R34_NW REUNION_R50_NE REUNION_R50_SE REUNION_R50_SW REUNION_R50_NW REUNION_R64_NE REUNION_R64_SE REUNION_R64_SW REUNION_R64_NW BOM_LAT BOM_LON BOM_TYPE BOM_WIND BOM_PRES BOM_TNUM BOM_CI BOM_RMW BOM_R34_NE BOM_R34_SE BOM_R34_SW BOM_R34_NW BOM_R50_NE BOM_R50_SE BOM_R50_SW BOM_R50_NW BOM_R64_NE BOM_R64_SE BOM_R64_SW BOM_R64_NW BOM_ROCI BOM_POCI BOM_EYE BOM_POS_METHOD BOM_PRES_METHOD NADI_LAT NADI_LON NADI_CAT NADI_WIND NADI_PRES WELLINGTON_LAT WELLINGTON_LON WELLINGTON_WIND WELLINGTON_PRES DS824_LAT DS824_LON DS824_STAGE DS824_WIND DS824_PRES TD9636_LAT TD9636_LON TD9636_STAGE TD9636_WIND TD9636_PRES TD9635_LAT TD9635_LON TD9635_WIND TD9635_PRES TD9635_ROCI NEUMANN_LAT NEUMANN_LON NEUMANN_CLASS NEUMANN_WIND NEUMANN_PRES MLC_LAT MLC_LON MLC_CLASS MLC_WIND MLC_PRES USA_GUST BOM_GUST BOM_GUST_PER REUNION_GUST REUNION_GUST_PER USA_SEAHGT USA_SEARAD_NE USA_SEARAD_SE USA_SEARAD_SW USA_SEARAD_NW STORM_SPEED STORM_DIR
1952260N17119 1952 67 WP MM NOT_NAMED 1952-09-15 12:00:00 TS 17.0000 119.400 main 89 89 __O___________ -1 17.0000 119.400 0 1004 14 270
1952260N17119 1952 67 WP MM NOT_NAMED 1952-09-15 15:00:00 TS 17.0008 118.652 main 140 140 __P___________ -1 17.0008 118.652 0 1003 13 270
1952260N17119 1952 67 WP MM NOT_NAMED 1952-09-15 18:00:00 TS 17.0000 118.000 main 207 207 __O___________ -1 17.0000 118.000 1 23 1003 11 270
1952260N17119 1952 67 WP MM NOT_NAMED 1952-09-15 21:00:00 TS 16.9997 117.505 main 257 257 __P___________ -1 16.9997 117.505 1 23 1003 9 244
1952260N17119 1952 67 WP MM NOT_NAMED 1952-09-16 00:00:00 TS 16.6000 117.150 main 275 275 O_O______OOO__ jtwc_wp WP141952 16.2000 117.200 20 -1 17.0000 117.100 1 23 1003 16.2000 117.200 TC 20 16.2000 117.200 1 20 16.2000 117.200 20 1004 120 10 236
1952260N17119 1952 67 WP MM NOT_NAMED 1952-09-16 03:00:00 TS 16.4588 116.668 main 325 325 P_P______PPP__ WP141952 16.1852 116.665 22 -1 16.9999 116.693 1 23 1002 16.1852 116.665 TC 22 16.1974 116.627 1 21 16.1852 116.665 22 1004 150 10 259
1952260N17119 1952 67 WP MM NOT_NAMED 1952-09-16 06:00:00 TS 16.4029 116.139 main 387 387 O_O______OPO__ jtwc_wp WP141952 16.2000 116.100 25 -1 17.0000 116.300 1 23 1002 16.2000 116.100 TC 25 16.2153 116.044 1 22 16.2000 116.100 25 1004 180 11 268
1952260N17119 1952 67 WP MM NOT_NAMED 1952-09-16 09:00:00 TS 16.4155 115.556 main 440 440 P_P______PPP__ WP141952 16.2698 115.480 25 -1 16.9924 115.900 1 26 1001 16.2698 115.480 TC 25 16.2756 115.438 1 23 16.2698 115.480 25 1003 150 12 276
1952260N17119 1952 67 WP MM NOT_NAMED 1952-09-16 12:00:00 TS 16.5200 114.940 main 515 466 O_O______OOO__ jtwc_wp WP141952 16.4000 114.800 25 -1 17.0000 115.500 1 29 1000 16.4000 114.800 TC 25 16.4000 114.800 1 25 16.4000 114.800 25 1003 120 13 282
1952260N17119 1952 67 WP MM NOT_NAMED 1952-09-16 15:00:00 TS 16.6682 114.263 main 466 390 P_P______PPP__ WP141952 16.5627 114.027 27 -1 17.0499 115.108 1 29 1000 16.5627 114.027 TC 27 16.6027 114.126 1 27 16.5627 114.027 27 1002 150 13 286
1952260N17119 1952 67 WP MM NOT_NAMED 1952-09-16 18:00:00 TS 16.8737 113.611 main 390 334 O_O______OPO__ jtwc_wp WP141952 16.8000 113.300 30 -1 17.1000 114.700 1 29 1000 16.8000 113.300 TC 30 16.8684 113.454 1 30 16.8000 113.300 30 1002 180 13 292
1952260N17119 1952 67 WP MM NOT_NAMED 1952-09-16 21:00:00 TS 17.1388 113.054 main 334 271 P_P______PPP__ WP141952 17.1423 112.725 32 -1 17.0924 114.265 1 29 1000 17.1423 112.725 TC 32 17.1748 112.829 1 32 17.1423 112.725 32 1001 180 11 299
1952260N17119 1952 67 WP MM NOT_NAMED 1952-09-17 00:00:00 TS 17.4200 112.600 main 271 232 O_O______OOO__ jtwc_wp WP141952 17.5000 112.300 35 0 17.1000 113.800 1 29 1000 17.5000 112.300 TC 35 17.5000 112.300 2 35 17.5000 112.300 35 1000 180 9 304
1952260N17119 1952 67 WP MM NOT_NAMED 1952-09-17 03:00:00 TS 17.6446 112.267 main 232 187 P_P______PPP__ WP141952 17.7422 112.020 35 0 17.1548 113.322 1 33 999 17.7422 112.020 TC 35 17.8415 111.956 2 35 17.7422 112.020 35 998 180 8 309
1952260N17119 1952 67 WP MM NOT_NAMED 1952-09-17 06:00:00 TS 17.8986 111.981 main 187 143 O_O______OPO__ jtwc_wp WP141952 18.0000 111.800 35 0 17.3000 112.800 2 38 998 18.0000 111.800 TC 35 18.1929 111.704 2 35 18.0000 111.800 35 997 180 9 316
1952260N17119 1952 67 WP MM NOT_NAMED 1952-09-17 09:00:00 TS 18.2585 111.652 main 138 86 P_P______PPP__ WP141952 18.3999 111.523 35 0 17.5700 112.215 2 38 998 18.3999 111.523 TC 35 18.5229 111.475 2 35 18.3999 111.523 35 996 210 10 317
1952260N17119 1952 67 WP MM NOT_NAMED 1952-09-17 12:00:00 TS 18.6200 111.280 main 86 33 O_O______OOO__ jtwc_wp WP141952 18.8000 111.200 35 0 17.9000 111.600 2 38 998 18.8000 111.200 TC 35 18.8000 111.200 2 35 18.8000 111.200 35 996 240 10 310
1952260N17119 1952 67 WP MM NOT_NAMED 1952-09-17 15:00:00 TS 18.9010 110.855 main 33 0 P_P______PPP__ WP141952 19.1098 110.838 35 0 18.1924 110.992 2 38 998 19.1098 110.838 TC 35 18.9829 110.770 2 33 19.1098 110.838 35 996 240 10 299
1952260N17119 1952 67 WP MM NOT_NAMED 1952-09-17 18:00:00 TS 19.1021 110.377 main 0 0 O_O______OPO__ jtwc_wp WP141952 19.3000 110.400 35 0 18.5000 110.400 2 38 998 19.3000 110.400 TC 35 19.1106 110.287 2 32 19.3000 110.400 35 997 240 10 288
1952260N17119 1952 67 WP MM NOT_NAMED 1952-09-17 21:00:00 TS 19.2097 109.826 main 0 0 P_P______PPP__ WP141952 19.3378 109.835 32 -1 18.8273 109.842 2 38 999 19.3378 109.835 TC 32 19.2079 109.785 2 31 19.3378 109.835 32 998 210 10 280
1952260N17119 1952 67 WP MM NOT_NAMED 1952-09-18 00:00:00 TS 19.2800 109.300 main 0 0 O_O______OOO__ jtwc_wp WP141952 19.3000 109.300 30 -1 19.2000 109.300 2 38 1000 19.3000 109.300 TC 30 19.3000 109.300 1 30 19.3000 109.300 30 999 180 9 281
1952260N17119 1952 67 WP MM NOT_NAMED 1952-09-18 03:00:00 TS 19.3672 108.931 main 0 0 P_P______PPP__ WP141952 19.2620 108.992 30 -1 19.6423 108.757 2 33 1001 19.2620 108.992 TC 30 19.4074 108.922 1 30 19.2620 108.992 30 999 210 7 286
1952260N17119 1952 67 WP MM NOT_NAMED 1952-09-18 06:00:00 TS 19.4722 108.591 main 15 15 O_O______OPO__ jtwc_wp WP141952 19.3000 108.700 30 -1 20.1000 108.200 1 29 1002 19.3000 108.700 TC 30 19.5180 108.558 1 30 19.3000 108.700 30 1000 240 8 291
1952260N17119 1952 67 WP MM NOT_NAMED 1952-09-18 09:00:00 TS 19.6430 108.182 main 53 53 P_P______PPP__ WP141952 19.4970 108.282 30 -1 20.5155 107.611 1 1003 19.4970 108.282 TC 30 19.6447 108.166 1 30 19.4970 108.282 30 1001 210 10 294
1952260N17119 1952 67 WP MM NOT_NAMED 1952-09-18 12:00:00 TS 19.8647 107.659 main 115 47 O_O______OOO__ jtwc_wp WP141952 19.8000 107.700 30 -1 20.9000 107.000 0 1004 19.8000 107.700 TC 30 19.8000 107.700 1 30 19.8000 107.700 30 1003 180 13 292
1952260N17119 1952 67 WP MM NOT_NAMED 1952-09-18 15:00:00 TS 20.1281 106.921 main 38 0 P________PPP__ WP141952 20.1734 106.851 30 -1 0 20.1734 106.851 TC 30 19.9922 107.130 1 28 20.1734 106.851 30 1004 150 16 291
1952260N17119 1952 67 WP MM NOT_NAMED 1952-09-18 18:00:00 TS 20.4284 106.118 main 0 0 O________OPO__ jtwc_wp WP141952 20.5000 106.000 30 -1 20.5000 106.000 TC 30 20.2137 106.470 1 27 20.5000 106.000 30 1005 120 14 290
1952260N17119 1952 67 WP MM NOT_NAMED 1952-09-18 21:00:00 TS 20.6041 105.497 main 0 0 P________PPP__ WP141952 20.6544 105.412 27 -1 20.6544 105.412 TC 27 20.4533 105.751 1 26 20.6544 105.412 27 1006 120 11 285
1952260N17119 1952 67 WP MM NOT_NAMED 1952-09-19 00:00:00 TS 20.7000 105.000 main 0 O________OOO__ jtwc_wp WP141952 20.7000 105.000 25 -1 20.7000 105.000 TC 25 20.7000 105.000 1 25 20.7000 105.000 25 1007 120 9 282

Digital Typhoon Data and Search

About IBTrACS Database

This database is a web-friendly format of International Best Track Archive for Climate Stewardship (IBTrACS), a global best track data archive curated by NOAA dating back to 1842.

Updated: 2021-10-08